Saint-Pascal, Canada
Current Conditions -  °F | °C
As of 12:53 PM on Thursday 30 Oct 2014 (Local Time) from KFVE Reporting Station
Overcast Overcast  
Wind Chill: 38°   Ceiling: 4000
Heat Index: 44°   Visibility: 10mi
Dew Point: 29°   Wind: 13mph
Humidity: 55%   Direction: 320°NW
Pressure: 29.8"   Gusts: NA
Location:  47.52°N, 69.82°W
Report Text: KFVE 301653Z AUTO 32011KT 10SM OVC040 07/M02 A2980 RMK AO2 SLP094 T00671017
Loading
Personal Weather Stations






























Interactive Weather Map
Tropical Storm Tracking
New forecast layout! Learn more

10-Day Weather Forecast

Advertisements
Track Severe Weather on mobile